This is the latest recevied weather packets stored in our database for station/object W4OTS. If no packets are shown the sender has not sent any weather packets the latest 10 day(s).
| Time | Temp. | Humidity | Pressure | Rain* | Wind** | Luminosity | Snow |
|---|---|---|---|---|---|---|---|
| 1777905452 | 20° C | 51% | 1019.4 hPa | 0 mm | - | 737 W/m² | - |
| 1777905150 | 20° C | 47% | 1019.5 hPa | 0 mm | - | 734 W/m² | - |
| 1777904846 | 20° C | 50% | 1019.5 hPa | 0 mm | - | 713 W/m² | - |
| 1777904544 | 18.89° C | 49% | 1019.4 hPa | 0 mm | - | 615 W/m² | - |
| 1777904240 | 19.44° C | 46% | 1019.6 hPa | 0 mm | - | 547 W/m² | - |
| 1777903938 | 19.44° C | 45% | 1019.4 hPa | 0 mm | - | 601 W/m² | - |
| 1777903634 | 18.33° C | 52% | 1019.5 hPa | 0 mm | - | 627 W/m² | - |
| 1777903329 | 18.89° C | 51% | 1019.4 hPa | 0 mm | - | 576 W/m² | - |
| 1777903027 | 18.33° C | 53% | 1019.7 hPa | 0 mm | - | 599 W/m² | - |
| 1777902723 | 18.33° C | 51% | 1019.5 hPa | 0 mm | - | 594 W/m² | - |
| 1777902421 | 17.78° C | 54% | 1019.3 hPa | 0 mm | - | 585 W/m² | - |
| 1777902117 | 17.78° C | 57% | 1019.5 hPa | 0 mm | - | 563 W/m² | - |
| 1777901816 | 17.22° C | 57% | 1019.5 hPa | 0 mm | - | 525 W/m² | - |
| 1777901513 | 16.67° C | 58% | 1019.4 hPa | 0 mm | - | 493 W/m² | - |
| 1777901210 | 16.67° C | 60% | 1019.3 hPa | 0 mm | - | 453 W/m² | - |
| 1777900907 | 15.56° C | 63% | 1019.4 hPa | 0 mm | - | 442 W/m² | - |
| 1777900605 | 15° C | 68% | 1019.3 hPa | 0 mm | - | 360 W/m² | - |
| 1777900302 | 13.89° C | 69% | 1019.3 hPa | 0 mm | - | 385 W/m² | - |
| 1777899998 | 13.33° C | 72% | 1019.2 hPa | 0 mm | - | 335 W/m² | - |
| 1777899695 | 13.33° C | 73% | 1019.5 hPa | 0 mm | - | 58 W/m² | - |
| 1777899392 | 12.78° C | 74% | 1019.4 hPa | 0 mm | - | 56 W/m² | - |
| 1777899090 | 12.22° C | 76% | 1019.2 hPa | 0 mm | - | 54 W/m² | - |
| 1777898787 | 12.22° C | 77% | 1019.4 hPa | 0 mm | - | 52 W/m² | - |
| 1777898484 | 11.67° C | 79% | 1019.3 hPa | 0 mm | - | 51 W/m² | - |
| 1777898182 | 11.11° C | 81% | 1019.4 hPa | 0 mm | - | 49 W/m² | - |
* Rain latest hour (hover to see other rain measurements)
** Current wind speed in m/s (hover to see current wind gust speed)